Time;durP1;ratioP1;P1;durP2;ratioP2;P2;SDS_P1;SDS_P2;PMS_P1;PMS_P2;Temp;Humidity;BMP_temperature;BMP_pressure;BME280_temperature;BME280_humidity;BME280_pressure;Samples;Min_cycle;Max_cycle;Signal;HPM_P1;HPM_P2
2022/05/10 00:01:24;;;;;;;6.50;2.40;;;;;;;11.54;67.19;101429.38;105461;1285;77002;-83
2022/05/10 00:03:51;;;;;;;6.80;2.00;;;;;;;11.50;67.48;101425.93;105322;1285;69843;-82
2022/05/10 00:06:18;;;;;;;8.60;1.90;;;;;;;11.45;67.92;101421.39;105702;1285;74029;-80
2022/05/10 00:08:45;;;;;;;7.00;2.30;;;;;;;11.43;68.24;101423.92;105920;1285;61985;-82
2022/05/10 00:11:12;;;;;;;8.10;2.60;;;;;;;11.39;68.37;101425.04;106286;1285;61230;-82
2022/05/10 00:13:42;;;;;;;7.10;2.40;;;;;;;11.36;68.42;101424.07;105745;1285;76985;-83
2022/05/10 00:16:15;;;;;;;7.00;2.90;;;;;;;11.34;68.86;101423.43;105949;1285;61984;-82
2022/05/10 00:18:43;;;;;;;6.80;3.40;;;;;;;11.33;69.06;101425.16;106273;1287;72689;-82
2022/05/10 00:21:16;;;;;;;3.40;1.90;;;;;;;11.31;69.16;101425.59;105515;1285;62211;-80
2022/05/10 00:23:43;;;;;;;3.50;2.10;;;;;;;11.29;69.40;101427.04;105537;1285;62106;-82
2022/05/10 00:26:12;;;;;;;7.30;2.40;;;;;;;11.27;69.41;101419.46;105619;1284;62130;-80
2022/05/10 00:28:39;;;;;;;4.30;2.30;;;;;;;11.25;69.66;101415.73;105556;1285;71521;-82
2022/05/10 00:31:12;;;;;;;6.20;3.20;;;;;;;11.23;69.60;101413.27;105715;1285;74141;-81
2022/05/10 00:33:39;;;;;;;5.10;3.00;;;;;;;11.20;69.75;101406.83;105655;1285;63157;-82
2022/05/10 00:36:14;;;;;;;3.90;2.20;;;;;;;11.18;70.08;101408.67;105603;1286;61958;-82
2022/05/10 00:38:41;;;;;;;4.20;2.60;;;;;;;11.15;70.12;101402.56;105404;1287;76800;-82
2022/05/10 00:41:23;;;;;;;4.90;2.40;;;;;;;11.14;70.41;101400.67;105311;1285;72499;-81
2022/05/10 00:43:58;;;;;;;4.90;2.70;;;;;;;11.11;70.46;101395.29;105324;1287;73171;-83
2022/05/10 00:46:44;;;;;;;;;;;;;;;11.09;70.70;101392.85;105873;1287;62335;-80
2022/05/10 00:49:26;;;;;;;4.50;2.60;;;;;;;11.06;70.74;101391.90;105335;1287;63745;-81
2022/05/10 00:52:02;;;;;;;5.00;2.20;;;;;;;11.03;71.05;101387.58;105739;1287;75819;-82
2022/05/10 00:54:41;;;;;;;4.70;2.60;;;;;;;11.01;71.01;101384.23;105037;1287;71425;-82
2022/05/10 01:00:22;;;;;;;5.70;3.00;;;;;;;10.96;71.01;101377.63;106189;1275;62121;-82
2022/05/10 01:02:54;;;;;;;5.50;2.90;;;;;;;10.94;71.05;101375.90;106277;1286;62237;-81
2022/05/10 01:05:31;;;;;;;5.70;2.60;;;;;;;10.93;71.33;101371.50;105823;1287;75708;-81
2022/05/10 01:08:03;;;;;;;3.80;2.70;;;;;;;10.91;71.33;101369.73;106108;1288;73887;-81
2022/05/10 01:10:38;;;;;;;3.80;2.20;;;;;;;10.89;71.38;101364.27;105414;1286;74013;-81
2022/05/10 01:13:19;;;;;;;5.00;2.50;;;;;;;10.88;71.69;101361.03;105373;1287;62233;-81
2022/05/10 01:15:57;;;;;;;4.60;2.90;;;;;;;10.86;71.70;101354.54;105179;1287;62105;-82
2022/05/10 01:18:24;;;;;;;8.40;3.00;;;;;;;10.84;72.01;101352.05;105316;1285;75696;-82
2022/05/10 01:20:57;;;;;;;5.50;2.50;;;;;;;10.82;72.11;101352.40;105307;1286;71598;-82
2022/05/10 01:23:36;;;;;;;4.40;2.30;;;;;;;10.80;72.46;101350.66;105162;1287;74031;-82
2022/05/10 01:26:23;;;;;;;5.30;3.10;;;;;;;10.78;72.45;101345.45;104945;1287;61987;-81
2022/05/10 01:29:00;;;;;;;5.50;2.70;;;;;;;10.75;72.73;101337.05;105096;1286;60549;-82
2022/05/10 01:31:36;;;;;;;4.50;2.50;;;;;;;10.75;72.94;101335.69;104883;1287;74468;-82
2022/05/10 01:34:20;;;;;;;4.90;2.20;;;;;;;10.72;72.87;101331.90;105319;1287;72695;-81
2022/05/10 01:36:53;;;;;;;6.40;2.80;;;;;;;10.69;73.21;101327.65;105254;1278;74336;-82
2022/05/10 01:39:28;;;;;;;6.30;3.40;;;;;;;10.67;73.19;101326.64;104969;1288;62524;-83
2022/05/10 01:42:08;;;;;;;7.50;3.10;;;;;;;10.63;73.12;101322.98;104966;1288;62014;-87
2022/05/10 01:44:44;;;;;;;4.90;2.70;;;;;;;10.59;73.84;101321.20;104906;1288;75139;-82
2022/05/10 01:47:20;;;;;;;4.80;2.10;;;;;;;10.56;74.03;101316.33;106257;1287;70704;-86
2022/05/10 01:49:52;;;;;;;4.50;2.70;;;;;;;10.54;74.03;101315.48;106520;1288;74023;-83
2022/05/10 01:52:31;;;;;;;4.40;2.50;;;;;;;10.53;74.02;101317.56;106649;1287;62524;-82
2022/05/10 01:55:32;;;;;;;4.10;2.50;;;;;;;10.52;74.23;101313.98;106644;1288;61044;-82
2022/05/10 01:58:03;;;;;;;5.60;3.50;;;;;;;10.50;74.00;101313.29;106756;1288;75792;-81
2022/05/10 02:00:30;;;;;;;8.00;3.20;;;;;;;10.48;74.21;101309.79;106582;1288;72568;-81
2022/05/10 02:02:59;;;;;;;6.60;3.30;;;;;;;10.47;74.31;101312.04;105653;1287;73154;-82
2022/05/10 02:05:42;;;;;;;7.80;3.60;;;;;;;10.45;74.47;101311.39;104831;1288;62192;-84
2022/05/10 02:08:30;;;;;;;5.60;3.30;;;;;;;10.40;74.54;101303.92;105097;1288;62069;-82
2022/05/10 02:11:03;;;;;;;4.90;2.80;;;;;;;10.39;74.58;101305.79;104911;1288;76868;-81
2022/05/10 02:13:59;;;;;;;6.40;3.10;;;;;;;10.36;74.79;101308.02;104646;1288;72260;-81
2022/05/10 02:16:40;;;;;;;4.60;2.40;;;;;;;10.33;74.97;101307.83;104826;1290;75452;-81
2022/05/10 02:19:16;;;;;;;7.20;3.80;;;;;;;10.29;75.06;101312.92;106191;1274;62473;-82
2022/05/10 02:21:48;;;;;;;7.00;2.70;;;;;;;10.27;75.21;101312.14;105061;1287;61987;-81
2022/05/10 02:24:25;;;;;;;4.20;2.50;;;;;;;10.25;75.54;101309.70;105144;1287;75294;-82
2022/05/10 02:26:58;;;;;;;3.50;2.60;;;;;;;10.22;75.43;101307.86;105030;1287;71534;-82
2022/05/10 02:29:45;;;;;;;4.20;2.40;;;;;;;10.19;76.04;101307.20;105661;1287;73532;-81
2022/05/10 02:35:15;;;;;;;5.10;2.60;;;;;;;10.17;76.26;101304.83;105580;1286;62515;-82
2022/05/10 02:37:42;;;;;;;4.60;2.30;;;;;;;10.17;76.40;101303.39;105565;1285;76337;-82
2022/05/10 02:40:09;;;;;;;5.30;3.10;;;;;;;10.17;76.37;101301.05;105429;1287;72133;-80
2022/05/10 02:42:36;;;;;;;5.10;3.60;;;;;;;10.19;76.64;101298.48;105352;1287;73022;-81
2022/05/10 02:45:04;;;;;;;5.50;2.80;;;;;;;10.20;76.37;101295.37;105181;1285;63365;-82
2022/05/10 02:47:38;;;;;;;5.00;3.10;;;;;;;10.21;76.86;101293.77;105251;1286;62130;-81
2022/05/10 02:50:07;;;;;;;5.90;3.00;;;;;;;10.23;76.58;101289.40;105305;1287;76838;-83
2022/05/10 02:52:35;;;;;;;6.50;3.20;;;;;;;10.23;76.56;101284.94;105151;1287;71319;-81
2022/05/10 02:55:12;;;;;;;6.10;3.60;;;;;;;10.25;76.73;101280.41;105065;1287;62118;-81
2022/05/10 02:57:39;;;;;;;4.60;3.10;;;;;;;10.26;76.96;101272.66;105328;1287;63303;-82
2022/05/10 03:00:07;;;;;;;6.10;2.60;;;;;;;10.27;76.84;101272.52;105144;1287;61583;-80
2022/05/10 03:02:39;;;;;;;4.30;2.70;;;;;;;10.29;76.96;101270.41;105030;1287;75911;-80
2022/05/10 03:05:08;;;;;;;7.70;3.30;;;;;;;10.29;77.04;101266.63;104845;1288;72558;-82
2022/05/10 03:07:34;;;;;;;6.20;2.70;;;;;;;10.31;77.21;101265.45;104810;1287;73060;-83
2022/05/10 03:10:01;;;;;;;5.20;2.80;;;;;;;10.32;77.42;101259.98;105197;1285;62177;-82
2022/05/10 03:12:28;;;;;;;7.30;3.90;;;;;;;10.33;77.44;101257.02;105107;1285;62215;-82
2022/05/10 03:14:55;;;;;;;5.20;2.70;;;;;;;10.35;77.92;101251.35;104943;1287;62056;-81
2022/05/10 03:17:21;;;;;;;4.80;3.20;;;;;;;10.37;77.83;101252.05;104855;1286;61093;-82
2022/05/10 03:19:48;;;;;;;3.90;2.60;;;;;;;10.40;77.92;101255.98;105131;1287;62228;-83
2022/05/10 03:22:15;;;;;;;5.50;3.00;;;;;;;10.42;77.74;101248.72;104845;1287;63283;-82
2022/05/10 03:24:41;;;;;;;7.60;4.10;;;;;;;10.44;77.94;101245.20;105072;1287;62096;-83
2022/05/10 03:27:09;;;;;;;5.90;2.90;;;;;;;10.45;78.08;101246.45;105181;1287;62147;-82
2022/05/10 03:29:39;;;;;;;4.80;2.60;;;;;;;10.47;77.92;101247.64;105146;1288;71623;-83
2022/05/10 03:32:07;;;;;;;4.00;2.70;;;;;;;10.48;77.99;101245.96;105335;1287;73126;-82
2022/05/10 03:37:18;;;;;;;7.40;3.00;;;;;;;10.51;78.05;101241.88;106402;1286;60113;-83
2022/05/10 03:39:45;;;;;;;4.80;2.70;;;;;;;10.54;78.02;101232.25;106404;1287;61981;-83
2022/05/10 03:42:17;;;;;;;4.70;3.00;;;;;;;10.57;77.81;101229.27;106384;1287;70120;-81
2022/05/10 03:44:49;;;;;;;5.40;2.70;;;;;;;10.60;77.78;101233.48;105019;1288;74319;-83
2022/05/10 03:47:17;;;;;;;5.70;3.10;;;;;;;10.64;77.84;101231.18;105114;1287;62535;-81
2022/05/10 03:49:46;;;;;;;4.30;2.80;;;;;;;10.68;77.63;101230.44;105189;1287;60906;-82
2022/05/10 03:52:14;;;;;;;6.80;2.80;;;;;;;10.72;77.42;101226.16;105092;1287;76765;-81
2022/05/10 03:54:41;;;;;;;5.90;3.30;;;;;;;10.75;77.29;101233.54;104981;1288;71819;-82
2022/05/10 03:57:07;;;;;;;4.70;2.70;;;;;;;10.79;76.99;101232.77;105005;1287;74304;-82
2022/05/10 03:59:34;;;;;;;4.70;2.60;;;;;;;10.84;76.99;101235.49;105273;1287;62167;-81
2022/05/10 04:02:00;;;;;;;4.50;2.90;;;;;;;10.88;77.01;101233.25;105292;1287;62100;-81
2022/05/10 04:04:29;;;;;;;5.30;3.00;;;;;;;10.92;77.07;101232.47;105268;1287;74297;-82
2022/05/10 04:06:55;;;;;;;5.30;2.80;;;;;;;10.96;76.84;101232.06;105444;1287;72577;-82
2022/05/10 04:09:22;;;;;;;4.50;3.20;;;;;;;11.00;76.59;101229.31;105219;1287;73989;-82
2022/05/10 04:11:48;;;;;;;5.30;3.10;;;;;;;11.05;76.42;101229.02;105308;1287;62141;-81
2022/05/10 04:14:17;;;;;;;7.30;3.50;;;;;;;11.09;76.44;101226.56;105440;1287;62119;-81
2022/05/10 04:16:47;;;;;;;5.90;3.00;;;;;;;11.15;76.39;101228.10;105051;1287;75813;-82
2022/05/10 04:19:14;;;;;;;6.70;2.90;;;;;;;11.21;76.07;101228.11;105298;1287;71232;-84
2022/05/10 04:21:41;;;;;;;5.90;2.90;;;;;;;11.29;76.11;101229.00;105268;1288;72992;-84
2022/05/10 04:24:08;;;;;;;6.40;3.10;;;;;;;11.40;76.05;101224.14;104946;1288;62199;-84
2022/05/10 04:26:34;;;;;;;5.50;3.20;;;;;;;11.52;75.93;101222.01;105045;1287;62119;-84
2022/05/10 04:29:00;;;;;;;4.80;2.50;;;;;;;11.63;75.77;101221.83;105191;1287;62232;-84
2022/05/10 04:31:27;;;;;;;5.10;3.10;;;;;;;11.74;75.43;101220.52;104875;1287;62162;-84
2022/05/10 04:33:54;;;;;;;5.40;2.40;;;;;;;11.87;74.96;101220.09;105011;1287;74370;-83
2022/05/10 04:36:23;;;;;;;3.50;2.30;;;;;;;11.99;75.00;101215.70;104992;1287;63477;-85
2022/05/10 04:38:49;;;;;;;4.80;2.80;;;;;;;12.13;74.58;101213.58;105386;1287;62092;-83
2022/05/10 04:41:26;;;;;;;4.80;2.90;;;;;;;12.29;74.13;101215.44;105101;1287;60726;-84
2022/05/10 04:43:54;;;;;;;7.00;2.70;;;;;;;12.45;73.88;101217.98;105181;1287;71537;-83
2022/05/10 04:46:21;;;;;;;4.00;2.20;;;;;;;12.60;73.31;101221.39;104799;1288;74069;-84
2022/05/10 04:48:48;;;;;;;3.90;2.30;;;;;;;12.74;72.98;101218.77;105189;1288;62114;-84
2022/05/10 04:51:15;;;;;;;7.40;3.10;;;;;;;12.87;72.33;101218.55;105049;1288;62113;-84
2022/05/10 04:53:42;;;;;;;5.30;3.10;;;;;;;12.99;71.94;101219.98;105198;1287;75701;-84
2022/05/10 04:56:15;;;;;;;6.40;2.20;;;;;;;13.10;71.71;101219.59;104926;1288;72214;-84
2022/05/10 04:58:43;;;;;;;5.20;2.30;;;;;;;13.20;71.20;101218.36;104975;1288;73130;-83
2022/05/10 05:01:16;;;;;;;4.40;2.20;;;;;;;13.31;70.85;101220.40;105236;1287;62193;-85
2022/05/10 05:03:45;;;;;;;4.30;2.40;;;;;;;13.40;70.58;101220.52;105108;1287;60786;-82
2022/05/10 05:06:16;;;;;;;5.20;2.40;;;;;;;13.51;70.44;101218.54;105196;1287;75868;-84
2022/05/10 05:08:43;;;;;;;3.50;2.40;;;;;;;13.61;70.07;101215.76;105433;1287;71273;-84
2022/05/10 05:11:16;;;;;;;4.20;2.00;;;;;;;13.71;69.63;101214.63;106246;1287;72900;-85
2022/05/10 05:13:42;;;;;;;4.20;2.00;;;;;;;13.81;69.35;101212.46;106719;1287;62414;-84
2022/05/10 05:16:15;;;;;;;3.60;1.80;;;;;;;13.93;68.74;101214.59;106878;1287;60351;-85
2022/05/10 05:18:42;;;;;;;4.40;2.10;;;;;;;14.07;68.66;101213.30;106747;1288;74556;-84
2022/05/10 05:21:15;;;;;;;5.10;2.40;;;;;;;14.19;68.12;101212.38;106857;1287;60785;-83
2022/05/10 05:23:43;;;;;;;5.10;2.10;;;;;;;14.31;67.96;101213.23;106967;1287;73190;-84
2022/05/10 05:26:14;;;;;;;5.30;2.80;;;;;;;14.42;67.78;101215.58;106749;1287;62181;-83
2022/05/10 05:28:41;;;;;;;7.00;2.00;;;;;;;14.53;67.31;101216.95;105256;1287;62095;-84
2022/05/10 05:31:17;;;;;;;6.80;1.90;;;;;;;14.62;67.10;101215.71;104981;1287;62091;-82
2022/05/10 05:33:46;;;;;;;4.80;2.20;;;;;;;14.72;66.70;101209.56;104650;1287;71298;-84
2022/05/10 05:36:13;;;;;;;6.20;2.00;;;;;;;14.82;66.58;101210.73;104841;1287;74379;-84
2022/05/10 05:38:40;;;;;;;5.60;2.70;;;;;;;14.93;66.47;101209.40;104997;1287;62363;-84
2022/05/10 05:41:21;;;;;;;5.40;2.10;;;;;;;15.04;65.92;101211.56;105013;1287;61994;-86
2022/05/10 05:43:48;;;;;;;4.90;2.00;;;;;;;15.17;65.96;101212.63;104850;1286;78117;-84
2022/05/10 05:46:15;;;;;;;4.70;2.40;;;;;;;15.28;65.76;101213.21;105172;1287;62078;-83
2022/05/10 05:48:42;;;;;;;7.40;2.20;;;;;;;15.39;65.48;101213.63;105206;1287;73052;-85
2022/05/10 05:51:15;;;;;;;4.10;1.80;;;;;;;15.49;65.40;101216.41;105015;1287;62371;-84
2022/05/10 05:53:44;;;;;;;6.20;2.10;;;;;;;15.58;65.01;101212.60;105035;1287;62876;-84
2022/05/10 05:56:17;;;;;;;4.10;2.30;;;;;;;15.67;64.97;101209.83;104969;1287;76907;-84
2022/05/10 05:58:43;;;;;;;4.50;2.20;;;;;;;15.78;64.36;101210.83;105026;1287;72653;-84
2022/05/10 06:01:16;;;;;;;6.00;2.50;;;;;;;15.89;63.64;101211.55;104819;1287;73326;-84
2022/05/10 06:03:43;;;;;;;7.00;2.20;;;;;;;16.04;62.83;101213.94;104800;1287;60725;-83
2022/05/10 06:06:15;;;;;;;7.80;2.50;;;;;;;16.16;62.21;101200.66;105095;1287;62212;-83
2022/05/10 06:08:43;;;;;;;7.80;1.90;;;;;;;16.30;60.78;101207.47;104744;1287;75812;-83
2022/05/10 06:11:16;;;;;;;5.40;2.30;;;;;;;16.43;60.25;101204.84;104957;1287;72472;-83
2022/05/10 06:13:43;;;;;;;4.60;2.20;;;;;;;16.54;59.90;101207.96;104899;1287;75045;-83
2022/05/10 06:16:12;;;;;;;5.20;2.60;;;;;;;16.66;59.43;101204.58;104722;1287;62115;-83
2022/05/10 06:18:41;;;;;;;5.70;2.20;;;;;;;16.79;58.98;101205.02;104886;1287;61955;-83
2022/05/10 06:21:16;;;;;;;8.10;2.50;;;;;;;16.91;58.83;101200.20;104931;1287;75794;-83
2022/05/10 06:23:43;;;;;;;6.10;2.30;;;;;;;17.04;58.52;101200.42;104818;1287;72814;-83
2022/05/10 06:26:15;;;;;;;13.00;2.60;;;;;;;17.15;58.42;101200.70;105183;1287;74092;-84
2022/05/10 06:28:42;;;;;;;4.50;1.90;;;;;;;17.26;58.48;101195.02;104775;1288;62126;-83
2022/05/10 06:31:15;;;;;;;6.30;3.10;;;;;;;17.38;58.47;101188.08;104982;1287;62379;-83
2022/05/10 06:33:41;;;;;;;2.60;1.60;;;;;;;17.51;58.39;101189.63;104878;1288;76538;-84
2022/05/10 06:36:14;;;;;;;4.30;2.10;;;;;;;17.61;57.77;101189.77;105045;1287;62125;-83
2022/05/10 06:38:41;;;;;;;6.40;2.60;;;;;;;17.70;57.48;101188.77;105026;1287;74019;-84
2022/05/10 06:41:17;;;;;;;4.00;1.80;;;;;;;17.80;57.16;101185.94;104628;1288;61954;-84
2022/05/10 06:43:44;;;;;;;4.00;2.20;;;;;;;17.92;56.74;101183.73;105186;1287;62091;-83
2022/05/10 06:46:20;;;;;;;3.70;2.10;;;;;;;18.06;56.68;101182.95;104944;1287;75745;-83
2022/05/10 06:48:47;;;;;;;11.00;2.90;;;;;;;18.18;55.80;101179.14;105276;1288;71536;-83
2022/05/10 06:51:21;;;;;;;8.20;2.20;;;;;;;18.28;55.39;101176.45;104892;1287;62250;-84
2022/05/10 06:53:48;;;;;;;4.50;1.90;;;;;;;18.40;54.66;101175.19;104869;1287;62159;-84
2022/05/10 06:56:18;;;;;;;8.10;2.60;;;;;;;18.54;54.73;101176.55;104977;1287;62178;-84
2022/05/10 06:58:44;;;;;;;4.30;2.20;;;;;;;18.69;54.11;101174.52;105094;1287;78025;-84
2022/05/10 07:01:17;;;;;;;3.50;2.00;;;;;;;18.84;53.64;101171.50;105000;1287;70439;-83
2022/05/10 07:03:50;;;;;;;3.90;2.00;;;;;;;19.01;53.39;101173.64;105253;1281;170412;-82
2022/05/10 07:06:20;;;;;;;3.50;1.80;;;;;;;19.19;52.79;101173.17;105532;1287;61940;-81
2022/05/10 07:08:47;;;;;;;4.50;2.10;;;;;;;19.36;52.35;101172.69;105441;1286;61064;-82
2022/05/10 07:11:17;;;;;;;5.50;2.20;;;;;;;19.53;51.49;101170.23;105033;1287;62062;-82
2022/05/10 07:13:44;;;;;;;6.00;2.40;;;;;;;19.70;50.85;101169.70;104975;1287;71537;-83
2022/05/10 07:16:17;;;;;;;4.60;2.20;;;;;;;19.93;51.35;101167.91;104708;1287;62003;-81
2022/05/10 07:18:43;;;;;;;5.50;1.80;;;;;;;20.12;49.31;101168.94;105060;1287;62248;-80
2022/05/10 07:21:16;;;;;;;4.10;1.80;;;;;;;20.28;49.05;101163.88;104831;1286;61688;-80
2022/05/10 07:23:42;;;;;;;10.00;2.10;;;;;;;20.44;48.76;101159.55;105417;1287;76782;-81
2022/05/10 07:26:18;;;;;;;6.10;2.20;;;;;;;20.63;48.49;101159.42;104818;1287;72304;-81
2022/05/10 07:28:45;;;;;;;4.60;2.30;;;;;;;20.80;47.81;101156.76;104793;1287;72608;-81
2022/05/10 07:31:19;;;;;;;6.70;1.80;;;;;;;20.99;47.34;101155.84;105272;1287;62251;-81
2022/05/10 07:33:45;;;;;;;4.70;2.20;;;;;;;21.09;47.37;101158.83;105282;1287;62100;-82
2022/05/10 07:36:25;;;;;;;4.00;1.70;;;;;;;21.22;47.31;101155.08;105649;1287;60228;-83
2022/05/10 07:38:52;;;;;;;4.20;2.50;;;;;;;21.35;47.20;101158.02;105439;1288;71517;-82
2022/05/10 07:41:22;;;;;;;4.40;2.10;;;;;;;21.44;46.92;101157.65;105561;1287;74039;-86
2022/05/10 07:43:50;;;;;;;3.70;1.80;;;;;;;21.47;46.71;101151.79;105313;1287;62187;-83
2022/05/10 07:46:17;;;;;;;6.50;2.50;;;;;;;21.49;46.50;101153.88;105388;1288;61822;-83
2022/05/10 07:48:45;;;;;;;3.60;2.10;;;;;;;21.44;47.17;101152.25;105358;1287;76697;-83
2022/05/10 07:51:19;;;;;;;5.30;2.30;;;;;;;21.43;48.02;101153.81;105428;1287;72676;-83
2022/05/10 07:53:46;;;;;;;3.00;1.80;;;;;;;21.42;47.91;101150.00;105134;1288;72023;-84
2022/05/10 07:56:19;;;;;;;5.20;2.00;;;;;;;21.33;47.71;101150.64;105128;1287;62103;-86
2022/05/10 07:58:55;;;;;;;5.80;2.90;;;;;;;21.27;48.16;101153.32;105340;1287;63336;-85
2022/05/10 08:01:24;;;;;;;4.50;2.30;;;;;;;21.19;48.60;101151.88;105094;1288;75803;-87
2022/05/10 08:03:50;;;;;;;3.60;2.20;;;;;;;21.14;48.93;101153.70;104891;1291;72201;-83
2022/05/10 08:06:17;;;;;;;4.10;2.00;;;;;;;21.09;48.73;101149.56;105259;1288;73809;-83
2022/05/10 08:08:44;;;;;;;4.40;2.00;;;;;;;21.10;48.81;101151.67;105347;1288;61966;-83
2022/05/10 08:11:18;;;;;;;7.20;2.20;;;;;;;21.12;49.08;101148.92;105050;1290;62429;-83
2022/05/10 08:13:45;;;;;;;7.70;2.20;;;;;;;21.18;49.32;101150.23;105268;1288;75934;-82
2022/05/10 08:16:18;;;;;;;4.10;2.50;;;;;;;21.24;49.17;101146.28;105115;1288;71977;-84
2022/05/10 08:18:49;;;;;;;5.70;2.20;;;;;;;21.33;49.19;101149.52;104880;1288;73988;-81
2022/05/10 08:21:16;;;;;;;7.20;2.50;;;;;;;21.45;49.00;101146.45;104702;1288;62710;-84
2022/05/10 08:23:43;;;;;;;6.10;2.20;;;;;;;21.59;48.66;101144.45;104939;1288;62019;-83
2022/05/10 08:26:26;;;;;;;3.80;1.70;;;;;;;21.74;48.40;101143.83;105137;1288;75329;-83
2022/05/10 08:28:52;;;;;;;5.60;2.20;;;;;;;21.81;47.69;101142.52;104976;1288;71333;-84
2022/05/10 08:31:24;;;;;;;7.80;2.90;;;;;;;21.85;47.37;101138.27;105487;1288;71857;-84
2022/05/10 08:33:50;;;;;;;3.70;2.50;;;;;;;21.96;47.79;101141.10;105365;1288;62201;-82
2022/05/10 08:36:17;;;;;;;4.00;2.50;;;;;;;22.08;47.16;101141.59;105266;1287;62200;-85
2022/05/10 08:38:44;;;;;;;5.00;2.40;;;;;;;22.16;47.13;101139.64;105066;1288;76757;-84
2022/05/10 08:41:45;;;;;;;4.60;2.10;;;;;;;22.20;46.77;101140.27;104967;1288;71425;-83
2022/05/10 08:44:15;;;;;;;4.60;2.10;;;;;;;22.26;47.09;101137.31;104919;1288;72617;-83
2022/05/10 08:46:50;;;;;;;3.90;2.10;;;;;;;22.43;46.79;101135.95;104836;1288;62245;-82
2022/05/10 08:49:36;;;;;;;3.80;1.60;;;;;;;22.57;45.68;101140.31;104863;1288;62220;-81
2022/05/10 08:52:04;;;;;;;6.20;2.50;;;;;;;22.69;44.99;101129.75;104912;1288;76393;-84
2022/05/10 08:54:30;;;;;;;3.40;2.40;;;;;;;22.78;44.52;101130.33;104864;1288;71350;-82
2022/05/10 08:57:11;;;;;;;4.20;2.30;;;;;;;22.93;44.91;101128.44;104926;1288;74057;-84
2022/05/10 08:59:40;;;;;;;2.70;1.90;;;;;;;23.19;45.14;101124.75;104931;1288;62078;-81
2022/05/10 09:02:36;;;;;;;5.40;2.20;;;;;;;23.45;44.00;101114.72;105000;1288;60794;-81
2022/05/10 09:05:28;;;;;;;3.20;1.80;;;;;;;23.77;43.95;101116.16;106062;1290;75759;-82
2022/05/10 09:08:18;;;;;;;3.60;2.20;;;;;;;24.00;43.53;101111.83;106199;1288;71375;-84
2022/05/10 09:10:57;;;;;;;4.10;2.20;;;;;;;24.00;43.22;101107.59;105031;1288;72945;-84
2022/05/10 09:13:24;;;;;;;4.00;1.90;;;;;;;23.90;43.35;101103.10;105083;1288;60714;-82
2022/05/10 09:16:02;;;;;;;4.50;2.40;;;;;;;23.76;42.72;101105.04;105310;1287;62064;-84
2022/05/10 09:18:51;;;;;;;3.10;2.10;;;;;;;23.65;43.14;101101.20;105177;1288;75877;-84
2022/05/10 09:21:48;;;;;;;4.20;2.40;;;;;;;23.54;42.90;101099.73;105177;1288;70601;-83
2022/05/10 09:24:32;;;;;;;5.30;2.50;;;;;;;23.52;42.97;101096.98;107081;1290;73475;-84
2022/05/10 09:27:10;;;;;;;7.20;2.20;;;;;;;23.63;43.36;101096.15;107067;1289;60371;-83
2022/05/10 09:29:45;;;;;;;7.60;2.60;;;;;;;23.77;43.10;101091.23;107320;1288;60326;-84
2022/05/10 09:35:32;;;;;;;7.10;2.20;;;;;;;23.95;42.49;101088.52;104991;1287;71432;-84
2022/05/10 09:38:06;;;;;;;3.10;1.90;;;;;;;24.04;42.71;101085.69;105257;1288;73070;-83
2022/05/10 09:40:42;;;;;;;;;;;;;;;24.07;41.83;101078.29;105242;1288;62235;-85
2022/05/10 09:43:11;;;;;;;4.80;2.20;;;;;;;24.12;42.25;101075.91;105351;1290;362041;-84
2022/05/10 09:45:39;;;;;;;3.50;2.60;;;;;;;24.12;41.78;101080.17;105273;1288;77550;-84
2022/05/10 09:48:08;;;;;;;4.90;2.60;;;;;;;24.14;42.00;101078.73;105194;1288;71992;-79
2022/05/10 09:50:45;;;;;;;4.10;2.70;;;;;;;24.18;41.76;101078.30;104700;1288;73841;-83
2022/05/10 09:53:11;;;;;;;5.40;2.30;;;;;;;24.27;42.12;101068.94;104979;1289;61982;-82
2022/05/10 09:55:50;;;;;;;5.50;2.40;;;;;;;24.46;42.90;101063.52;104602;1288;62138;-81
2022/05/10 09:58:21;;;;;;;3.50;2.20;;;;;;;24.64;41.97;101065.48;104902;1288;76882;-80
2022/05/10 10:00:52;;;;;;;5.00;2.20;;;;;;;24.70;41.54;101065.58;104750;1288;71346;-80
2022/05/10 10:03:35;;;;;;;8.30;3.20;;;;;;;24.84;41.19;101064.70;104608;1288;72695;-82
2022/05/10 10:06:24;;;;;;;3.60;2.60;;;;;;;24.97;41.19;101059.98;104802;1287;62201;-80
2022/05/10 10:08:55;;;;;;;4.10;2.00;;;;;;;25.12;40.88;101055.42;104991;1288;61994;-79
2022/05/10 10:11:21;;;;;;;4.60;2.70;;;;;;;25.29;40.70;101051.34;105152;1288;76888;-82
2022/05/10 10:13:53;;;;;;;7.90;2.80;;;;;;;25.40;39.82;101044.88;104750;1288;73306;-82
2022/05/10 10:16:32;;;;;;;3.70;2.50;;;;;;;25.50;39.25;101045.95;105046;1287;74028;-80
2022/05/10 10:19:26;;;;;;;5.20;2.40;;;;;;;25.65;39.12;101047.09;104601;1288;62144;-79
2022/05/10 10:25:46;;;;;;;5.60;2.60;;;;;;;25.61;39.00;101034.64;105098;1288;75103;-82
2022/05/10 10:28:35;;;;;;;7.00;2.90;;;;;;;25.57;38.79;101030.06;104707;1288;72671;-88
2022/05/10 10:31:11;;;;;;;7.80;2.90;;;;;;;25.50;38.24;101032.96;105281;1288;73402;-84
2022/05/10 10:34:00;;;;;;;4.20;2.80;;;;;;;25.46;38.70;101023.82;105724;1288;62102;-87
2022/05/10 10:36:33;;;;;;;5.90;2.40;;;;;;;25.57;39.06;101031.67;106492;1287;60035;-85
2022/05/10 10:39:24;;;;;;;3.30;2.20;;;;;;;25.72;39.03;101025.90;106644;1288;75919;-85
2022/05/10 10:42:02;;;;;;;4.90;2.10;;;;;;;25.91;38.42;101023.15;106081;1288;71404;-85
2022/05/10 10:44:34;;;;;;;7.70;3.00;;;;;;;25.99;37.41;101024.30;105820;1290;73784;-84
2022/05/10 10:47:11;;;;;;;3.40;2.20;;;;;;;26.13;37.43;101017.02;105673;1288;62125;-85
2022/05/10 10:49:52;;;;;;;5.50;2.30;;;;;;;26.25;36.63;101020.52;105770;1288;61478;-86
2022/05/10 10:52:19;;;;;;;2.70;2.10;;;;;;;26.43;36.87;101006.79;105727;1288;76110;-84
2022/05/10 10:54:46;;;;;;;5.80;2.50;;;;;;;26.60;36.38;101001.63;105501;1288;71476;-85
2022/05/10 10:57:37;;;;;;;5.10;2.80;;;;;;;26.65;35.98;101005.81;105558;1290;62802;-85
2022/05/10 11:00:16;;;;;;;3.70;2.60;;;;;;;26.72;35.94;100996.60;105350;1290;61693;-85
2022/05/10 11:02:46;;;;;;;5.40;2.90;;;;;;;26.76;35.78;100997.02;105098;1288;62053;-86
2022/05/10 11:05:50;;;;;;;4.20;2.40;;;;;;;26.74;35.34;100990.44;104942;1288;76787;-85
2022/05/10 11:08:29;;;;;;;4.40;2.60;;;;;;;26.90;35.44;100983.64;105153;1288;71841;-85
2022/05/10 11:11:18;;;;;;;5.10;2.20;;;;;;;26.99;35.68;100983.11;105060;1290;73769;-85
2022/05/10 11:14:13;;;;;;;5.20;2.60;;;;;;;27.18;35.97;100978.08;105147;1288;62109;-86
2022/05/10 11:17:04;;;;;;;3.10;2.40;;;;;;;27.06;35.68;100980.26;104971;1288;62201;-81
2022/05/10 11:19:53;;;;;;;4.70;2.30;;;;;;;27.04;36.21;100968.61;104808;1288;75957;-87
2022/05/10 11:22:41;;;;;;;2.60;1.80;;;;;;;26.97;35.55;100966.51;104928;1290;72023;-81
2022/05/10 11:25:51;;;;;;;5.00;2.30;;;;;;;26.96;35.72;100959.39;104611;1290;74033;-84
2022/05/10 11:28:31;;;;;;;3.40;2.30;;;;;;;26.84;35.54;100954.27;105230;1288;62292;-84
2022/05/10 11:31:20;;;;;;;5.30;2.40;;;;;;;26.65;34.29;100955.69;105084;1288;61878;-85
2022/05/10 11:33:57;;;;;;;3.40;2.20;;;;;;;26.59;35.54;100963.59;104976;1289;75494;-85
2022/05/10 11:36:39;;;;;;;3.20;2.30;;;;;;;26.54;34.83;100953.79;105137;1288;72608;-84
2022/05/10 11:39:34;;;;;;;4.40;2.60;;;;;;;26.46;34.71;100951.67;105147;1289;73972;-84
2022/05/10 11:42:20;;;;;;;3.90;2.30;;;;;;;26.39;34.50;100950.16;105453;1288;62146;-86
2022/05/10 11:45:01;;;;;;;3.90;2.60;;;;;;;26.35;34.97;100949.02;105153;1288;62130;-82
2022/05/10 11:47:36;;;;;;;2.80;2.00;;;;;;;26.29;35.30;100944.73;105165;1289;76772;-84
2022/05/10 11:50:06;;;;;;;5.10;2.20;;;;;;;26.39;35.75;100942.80;105384;1289;71472;-85
2022/05/10 11:52:55;;;;;;;2.50;1.90;;;;;;;26.36;35.46;100935.86;105086;1290;73009;-81
2022/05/10 11:55:49;;;;;;;3.40;2.40;;;;;;;26.50;34.93;100931.52;105003;1287;62100;-85
2022/05/10 11:58:17;;;;;;;3.80;2.40;;;;;;;26.89;34.68;100923.80;104949;1290;62197;-82
2022/05/10 12:00:50;;;;;;;5.40;2.30;;;;;;;27.31;34.04;100914.52;105472;1288;76736;-87